Kalamazoo, MI (49002)

6:54 AM EST on January 25, 2015 (GMT -0500)
Hilton Insurance Agency | Change Station
CLOSE
Current Station
Personal Weather Station
Location: Portage, MI
Elevation: 850 ft
Nearby Weather Stations

Elev 850 ft 42.20 °N, 85.59 °W | Updated 12 seconds ago

Overcast
Overcast
32.7 °F
Feels Like 33 °F
N
0.4
Wind Variable Wind from NE
Gusts 5.4 mph

Today
High -- | Low -- °F
--% Chance of Precip.
Yesterday
High -- | Low -- °F
Precip. -- in
8:02 AM 5:47 PM
Waxing Crescent, 31% visible
Pressure 29.72 in
Visibility 4.0 miles
Clouds Overcast 500 ft
Windchill 33 °F
Dew Point 32 °F
Humidity 80%
Rainfall 0.00 in
Snow Depth Not available.
UV 0 out of 12
Pollen .10 out of 12
Air Quality Not available.
Flu Activity Not available.
SPECI KAZO 251107Z 05008KT 4SM BR OVC005 01/M01 A2972 RMK AO2 T00061011 $

More Conditions Fewer Conditions

Pressure 29.72 in
Visibility 4.0 miles
Clouds Overcast 500 ft
Windchill 33 °F
Dew Point 32 °F
Humidity 80%
Rainfall 0.00 in
Snow Depth Not available.
UV 0 out of 12
Pollen .10 out of 12
Air Quality Not available.
Flu Activity Not available.
SPECI KAZO 251107Z 05008KT 4SM BR OVC005 01/M01 A2972 RMK AO2 T00061011 $

More Conditions Fewer Conditions

10-Day Weather Forecast

Almanac

Astronomy

Jan. 25, 2015 Rise Set
Actual Time
Civil Twilight
Nautical Twilight
Astronomical Twilight
Moon
Length of Visible Light
Length of Day
Tomorrow will be .
, % of the Moon is Illuminated

Today's Extremes

State Highs State Lows

Community

WunderPhotos

Upload Photos

1,789,874 photos uploaded!

WunderBlogs® & News

Nearby

Air Quality

  Air Quality AQ Index Pollutant
Not available.

Snow Depth

Station Depth Elevation

Earthquake Activity

City Distance Mag. Time & Date
Minimum magnitude displayed is 2.5.

Coastal Water Temperatures

Place Temperature

Nearby Weather Stations